sensor_id;sensor_type;location;lat;lon;timestamp;temperature;humidity
7317;DHT22;3699;51.462;6.696;2023-06-26T00:02:09;23.60;99.90
7317;DHT22;3699;51.462;6.696;2023-06-26T00:04:35;23.60;99.90
7317;DHT22;3699;51.462;6.696;2023-06-26T00:07:03;23.50;99.90
7317;DHT22;3699;51.462;6.696;2023-06-26T00:09:31;23.50;99.90
7317;DHT22;3699;51.462;6.696;2023-06-26T00:11:58;23.40;99.90
7317;DHT22;3699;51.462;6.696;2023-06-26T00:14:25;23.40;99.90
7317;DHT22;3699;51.462;6.696;2023-06-26T00:16:52;23.30;99.90
7317;DHT22;3699;51.462;6.696;2023-06-26T00:19:19;23.20;99.90
7317;DHT22;3699;51.462;6.696;2023-06-26T00:21:46;23.20;99.90
7317;DHT22;3699;51.462;6.696;2023-06-26T00:24:13;23.10;99.90
7317;DHT22;3699;51.462;6.696;2023-06-26T00:26:41;23.10;99.90
7317;DHT22;3699;51.462;6.696;2023-06-26T00:29:08;23.10;99.90
7317;DHT22;3699;51.462;6.696;2023-06-26T00:31:35;23.00;99.90
7317;DHT22;3699;51.462;6.696;2023-06-26T00:34:02;23.00;99.90
7317;DHT22;3699;51.462;6.696;2023-06-26T00:36:28;23.00;99.90
7317;DHT22;3699;51.462;6.696;2023-06-26T00:38:55;23.00;99.90
7317;DHT22;3699;51.462;6.696;2023-06-26T00:41:22;23.10;99.90
7317;DHT22;3699;51.462;6.696;2023-06-26T00:43:50;23.10;99.90
7317;DHT22;3699;51.462;6.696;2023-06-26T00:46:17;23.10;99.90
7317;DHT22;3699;51.462;6.696;2023-06-26T00:48:46;23.10;99.90
7317;DHT22;3699;51.462;6.696;2023-06-26T00:51:14;23.10;99.90
7317;DHT22;3699;51.462;6.696;2023-06-26T00:53:42;23.10;99.90
7317;DHT22;3699;51.462;6.696;2023-06-26T00:56:09;23.10;99.90
7317;DHT22;3699;51.462;6.696;2023-06-26T00:58:36;23.10;99.90
7317;DHT22;3699;51.462;6.696;2023-06-26T01:04:26;23.10;99.90
7317;DHT22;3699;51.462;6.696;2023-06-26T01:06:53;23.00;99.90
7317;DHT22;3699;51.462;6.696;2023-06-26T01:09:22;23.00;99.90
7317;DHT22;3699;51.462;6.696;2023-06-26T01:11:50;23.00;99.90
7317;DHT22;3699;51.462;6.696;2023-06-26T01:14:17;23.00;99.90
7317;DHT22;3699;51.462;6.696;2023-06-26T01:16:44;23.00;99.90
7317;DHT22;3699;51.462;6.696;2023-06-26T01:19:20;22.90;99.90
7317;DHT22;3699;51.462;6.696;2023-06-26T01:21:54;22.90;99.90
7317;DHT22;3699;51.462;6.696;2023-06-26T01:24:25;22.90;99.90
7317;DHT22;3699;51.462;6.696;2023-06-26T01:26:59;22.80;99.90
7317;DHT22;3699;51.462;6.696;2023-06-26T01:29:29;22.80;99.90
7317;DHT22;3699;51.462;6.696;2023-06-26T01:31:56;22.80;99.90
7317;DHT22;3699;51.462;6.696;2023-06-26T01:34:23;22.80;99.90
7317;DHT22;3699;51.462;6.696;2023-06-26T01:36:51;22.80;99.90
7317;DHT22;3699;51.462;6.696;2023-06-26T01:39:19;22.70;99.90
7317;DHT22;3699;51.462;6.696;2023-06-26T01:41:46;22.70;99.90
7317;DHT22;3699;51.462;6.696;2023-06-26T01:44:21;22.70;99.90
7317;DHT22;3699;51.462;6.696;2023-06-26T01:46:56;22.60;99.90
7317;DHT22;3699;51.462;6.696;2023-06-26T01:49:29;22.60;99.90
7317;DHT22;3699;51.462;6.696;2023-06-26T01:52:03;22.60;99.90
7317;DHT22;3699;51.462;6.696;2023-06-26T01:54:37;22.60;99.90
7317;DHT22;3699;51.462;6.696;2023-06-26T01:57:06;22.60;99.90
7317;DHT22;3699;51.462;6.696;2023-06-26T01:59:36;22.60;99.90
7317;DHT22;3699;51.462;6.696;2023-06-26T02:02:07;22.60;99.90
7317;DHT22;3699;51.462;6.696;2023-06-26T02:04:33;22.60;99.90
7317;DHT22;3699;51.462;6.696;2023-06-26T02:07:00;22.60;99.90
7317;DHT22;3699;51.462;6.696;2023-06-26T02:09:27;22.50;99.90
7317;DHT22;3699;51.462;6.696;2023-06-26T02:11:54;22.50;99.90
7317;DHT22;3699;51.462;6.696;2023-06-26T02:14:20;22.50;99.90
7317;DHT22;3699;51.462;6.696;2023-06-26T02:16:49;22.50;99.90
7317;DHT22;3699;51.462;6.696;2023-06-26T02:19:15;22.40;99.90
7317;DHT22;3699;51.462;6.696;2023-06-26T02:21:47;22.40;99.90
7317;DHT22;3699;51.462;6.696;2023-06-26T02:24:13;22.50;99.90
7317;DHT22;3699;51.462;6.696;2023-06-26T02:26:40;22.50;99.90
7317;DHT22;3699;51.462;6.696;2023-06-26T02:29:07;22.50;99.90
7317;DHT22;3699;51.462;6.696;2023-06-26T02:31:34;22.50;99.90
7317;DHT22;3699;51.462;6.696;2023-06-26T02:34:02;22.40;99.90
7317;DHT22;3699;51.462;6.696;2023-06-26T02:36:28;22.40;99.90
7317;DHT22;3699;51.462;6.696;2023-06-26T02:38:55;22.50;99.90
7317;DHT22;3699;51.462;6.696;2023-06-26T02:41:22;22.40;99.90
7317;DHT22;3699;51.462;6.696;2023-06-26T02:43:49;22.40;99.90
7317;DHT22;3699;51.462;6.696;2023-06-26T02:46:15;22.40;99.90
7317;DHT22;3699;51.462;6.696;2023-06-26T02:52:06;22.50;99.90
7317;DHT22;3699;51.462;6.696;2023-06-26T02:54:32;22.50;99.90
7317;DHT22;3699;51.462;6.696;2023-06-26T02:56:59;22.40;99.90
7317;DHT22;3699;51.462;6.696;2023-06-26T02:59:26;22.40;99.90
7317;DHT22;3699;51.462;6.696;2023-06-26T03:01:53;22.50;99.90
7317;DHT22;3699;51.462;6.696;2023-06-26T03:04:19;22.50;99.90
7317;DHT22;3699;51.462;6.696;2023-06-26T03:06:46;22.40;99.90
7317;DHT22;3699;51.462;6.696;2023-06-26T03:09:14;22.40;99.90
7317;DHT22;3699;51.462;6.696;2023-06-26T03:11:42;22.40;99.90
7317;DHT22;3699;51.462;6.696;2023-06-26T03:14:09;22.40;99.90
7317;DHT22;3699;51.462;6.696;2023-06-26T03:16:35;22.30;99.90
7317;DHT22;3699;51.462;6.696;2023-06-26T03:19:02;22.30;99.90
7317;DHT22;3699;51.462;6.696;2023-06-26T03:21:29;22.30;99.90
7317;DHT22;3699;51.462;6.696;2023-06-26T03:23:56;22.30;99.90
7317;DHT22;3699;51.462;6.696;2023-06-26T03:26:24;22.30;99.90
7317;DHT22;3699;51.462;6.696;2023-06-26T03:28:52;22.30;99.90
7317;DHT22;3699;51.462;6.696;2023-06-26T03:31:20;22.30;99.90
7317;DHT22;3699;51.462;6.696;2023-06-26T03:33:46;22.20;99.90
7317;DHT22;3699;51.462;6.696;2023-06-26T03:36:13;22.20;99.90
7317;DHT22;3699;51.462;6.696;2023-06-26T03:38:40;22.20;99.90
7317;DHT22;3699;51.462;6.696;2023-06-26T03:41:07;22.20;99.90
7317;DHT22;3699;51.462;6.696;2023-06-26T03:43:35;22.20;99.90
7317;DHT22;3699;51.462;6.696;2023-06-26T03:46:02;22.20;99.90
7317;DHT22;3699;51.462;6.696;2023-06-26T03:48:28;22.20;99.90
7317;DHT22;3699;51.462;6.696;2023-06-26T03:50:55;22.20;99.90
7317;DHT22;3699;51.462;6.696;2023-06-26T03:53:22;22.20;99.90
7317;DHT22;3699;51.462;6.696;2023-06-26T03:55:49;22.20;99.90
7317;DHT22;3699;51.462;6.696;2023-06-26T03:58:15;22.30;99.90
7317;DHT22;3699;51.462;6.696;2023-06-26T04:00:43;22.30;99.90
7317;DHT22;3699;51.462;6.696;2023-06-26T04:03:12;22.30;99.90
7317;DHT22;3699;51.462;6.696;2023-06-26T04:05:39;22.30;99.90
7317;DHT22;3699;51.462;6.696;2023-06-26T04:08:05;22.40;99.90
7317;DHT22;3699;51.462;6.696;2023-06-26T04:10:32;22.40;99.90
7317;DHT22;3699;51.462;6.696;2023-06-26T04:12:59;22.50;99.90
7317;DHT22;3699;51.462;6.696;2023-06-26T04:15:26;22.60;99.90
7317;DHT22;3699;51.462;6.696;2023-06-26T04:17:54;22.70;99.90
7317;DHT22;3699;51.462;6.696;2023-06-26T04:20:20;23.00;99.90
7317;DHT22;3699;51.462;6.696;2023-06-26T04:22:47;23.20;99.90
7317;DHT22;3699;51.462;6.696;2023-06-26T04:25:14;23.40;99.90
7317;DHT22;3699;51.462;6.696;2023-06-26T04:27:41;23.60;99.90
7317;DHT22;3699;51.462;6.696;2023-06-26T04:30:10;23.80;99.90
7317;DHT22;3699;51.462;6.696;2023-06-26T04:32:37;24.00;99.90
7317;DHT22;3699;51.462;6.696;2023-06-26T04:35:06;24.20;99.90
7317;DHT22;3699;51.462;6.696;2023-06-26T04:37:33;24.30;99.90
7317;DHT22;3699;51.462;6.696;2023-06-26T04:40:00;24.50;99.90
7317;DHT22;3699;51.462;6.696;2023-06-26T04:42:28;24.60;99.90
7317;DHT22;3699;51.462;6.696;2023-06-26T04:44:55;24.70;99.90
7317;DHT22;3699;51.462;6.696;2023-06-26T04:47:21;24.90;99.90
7317;DHT22;3699;51.462;6.696;2023-06-26T04:49:48;25.00;99.90
7317;DHT22;3699;51.462;6.696;2023-06-26T04:52:16;25.20;99.90
7317;DHT22;3699;51.462;6.696;2023-06-26T04:54:43;25.30;99.90
7317;DHT22;3699;51.462;6.696;2023-06-26T04:57:09;25.50;99.90
7317;DHT22;3699;51.462;6.696;2023-06-26T04:59:37;25.60;99.90
7317;DHT22;3699;51.462;6.696;2023-06-26T05:02:04;25.70;99.90
7317;DHT22;3699;51.462;6.696;2023-06-26T05:04:31;25.70;99.90
7317;DHT22;3699;51.462;6.696;2023-06-26T05:06:58;25.70;99.90
7317;DHT22;3699;51.462;6.696;2023-06-26T05:09:26;25.80;99.90
7317;DHT22;3699;51.462;6.696;2023-06-26T05:11:53;25.80;99.90
7317;DHT22;3699;51.462;6.696;2023-06-26T05:14:19;25.70;99.90
7317;DHT22;3699;51.462;6.696;2023-06-26T05:16:46;25.50;99.90
7317;DHT22;3699;51.462;6.696;2023-06-26T05:19:13;25.30;99.90
7317;DHT22;3699;51.462;6.696;2023-06-26T05:21:39;25.00;99.90
7317;DHT22;3699;51.462;6.696;2023-06-26T05:24:07;24.80;99.90
7317;DHT22;3699;51.462;6.696;2023-06-26T05:26:37;24.60;99.90
7317;DHT22;3699;51.462;6.696;2023-06-26T05:29:04;24.60;99.90
7317;DHT22;3699;51.462;6.696;2023-06-26T05:31:32;24.90;99.90
7317;DHT22;3699;51.462;6.696;2023-06-26T05:34:02;25.10;99.90
7317;DHT22;3699;51.462;6.696;2023-06-26T05:36:29;25.30;99.90
7317;DHT22;3699;51.462;6.696;2023-06-26T05:38:58;25.30;99.90
7317;DHT22;3699;51.462;6.696;2023-06-26T05:41:26;25.40;99.90
7317;DHT22;3699;51.462;6.696;2023-06-26T05:47:15;25.90;99.90
7317;DHT22;3699;51.462;6.696;2023-06-26T05:49:42;25.70;99.90
7317;DHT22;3699;51.462;6.696;2023-06-26T05:52:10;25.50;99.90
7317;DHT22;3699;51.462;6.696;2023-06-26T05:54:38;25.30;99.90
7317;DHT22;3699;51.462;6.696;2023-06-26T05:57:05;25.10;99.90
7317;DHT22;3699;51.462;6.696;2023-06-26T05:59:32;24.90;99.90
7317;DHT22;3699;51.462;6.696;2023-06-26T06:01:59;24.70;99.90
7317;DHT22;3699;51.462;6.696;2023-06-26T06:04:27;24.50;99.90
7317;DHT22;3699;51.462;6.696;2023-06-26T06:06:54;24.40;99.90
7317;DHT22;3699;51.462;6.696;2023-06-26T06:09:21;24.30;99.90
7317;DHT22;3699;51.462;6.696;2023-06-26T06:11:47;24.20;99.90
7317;DHT22;3699;51.462;6.696;2023-06-26T06:14:14;24.10;99.90
7317;DHT22;3699;51.462;6.696;2023-06-26T06:16:41;24.00;99.90
7317;DHT22;3699;51.462;6.696;2023-06-26T06:19:07;24.10;99.90
7317;DHT22;3699;51.462;6.696;2023-06-26T06:21:38;24.40;99.90
7317;DHT22;3699;51.462;6.696;2023-06-26T06:24:05;24.80;99.90
7317;DHT22;3699;51.462;6.696;2023-06-26T06:26:32;27.50;99.90
7317;DHT22;3699;51.462;6.696;2023-06-26T06:28:59;26.10;99.90
7317;DHT22;3699;51.462;6.696;2023-06-26T06:31:25;26.70;99.90
7317;DHT22;3699;51.462;6.696;2023-06-26T06:33:53;27.20;99.90
7317;DHT22;3699;51.462;6.696;2023-06-26T06:36:20;27.70;97.20
7317;DHT22;3699;51.462;6.696;2023-06-26T06:38:48;28.10;91.90
7317;DHT22;3699;51.462;6.696;2023-06-26T06:41:15;28.60;84.90
7317;DHT22;3699;51.462;6.696;2023-06-26T06:43:42;28.50;81.30
7317;DHT22;3699;51.462;6.696;2023-06-26T06:46:09;28.40;82.90
7317;DHT22;3699;51.462;6.696;2023-06-26T06:48:35;28.10;85.50
7317;DHT22;3699;51.462;6.696;2023-06-26T06:51:02;27.60;89.40
7317;DHT22;3699;51.462;6.696;2023-06-26T06:53:29;27.30;90.80
7317;DHT22;3699;51.462;6.696;2023-06-26T06:55:58;27.00;92.90
7317;DHT22;3699;51.462;6.696;2023-06-26T06:58:25;26.70;94.00
7317;DHT22;3699;51.462;6.696;2023-06-26T07:00:51;26.30;96.20
7317;DHT22;3699;51.462;6.696;2023-06-26T07:03:18;26.10;99.90
7317;DHT22;3699;51.462;6.696;2023-06-26T07:05:46;25.80;99.90
7317;DHT22;3699;51.462;6.696;2023-06-26T07:08:13;25.80;99.90
7317;DHT22;3699;51.462;6.696;2023-06-26T07:10:40;26.00;99.90
7317;DHT22;3699;51.462;6.696;2023-06-26T07:13:08;26.40;99.90
7317;DHT22;3699;51.462;6.696;2023-06-26T07:15:35;27.10;99.90
7317;DHT22;3699;51.462;6.696;2023-06-26T07:18:01;27.50;95.20
7317;DHT22;3699;51.462;6.696;2023-06-26T07:20:28;27.90;95.00
7317;DHT22;3699;51.462;6.696;2023-06-26T07:22:55;28.40;94.10
7317;DHT22;3699;51.462;6.696;2023-06-26T07:25:21;28.90;87.00
7317;DHT22;3699;51.462;6.696;2023-06-26T07:27:48;29.00;86.60
7317;DHT22;3699;51.462;6.696;2023-06-26T07:30:16;29.40;82.20
7317;DHT22;3699;51.462;6.696;2023-06-26T07:32:44;29.60;76.70
7317;DHT22;3699;51.462;6.696;2023-06-26T07:35:11;29.80;75.80
7317;DHT22;3699;51.462;6.696;2023-06-26T07:37:38;29.60;66.00
7317;DHT22;3699;51.462;6.696;2023-06-26T07:40:07;29.30;71.00
7317;DHT22;3699;51.462;6.696;2023-06-26T07:42:34;29.10;75.00
7317;DHT22;3699;51.462;6.696;2023-06-26T07:45:01;28.80;75.30
7317;DHT22;3699;51.462;6.696;2023-06-26T07:47:31;28.70;84.40
7317;DHT22;3699;51.462;6.696;2023-06-26T07:49:58;28.80;88.00
7317;DHT22;3699;51.462;6.696;2023-06-26T07:52:25;29.00;81.10
7317;DHT22;3699;51.462;6.696;2023-06-26T07:54:51;29.20;76.20
7317;DHT22;3699;51.462;6.696;2023-06-26T07:57:18;29.40;65.80
7317;DHT22;3699;51.462;6.696;2023-06-26T07:59:45;29.40;73.60
7317;DHT22;3699;51.462;6.696;2023-06-26T08:02:12;29.60;68.80
7317;DHT22;3699;51.462;6.696;2023-06-26T08:04:40;29.70;59.30
7317;DHT22;3699;51.462;6.696;2023-06-26T08:07:06;29.60;60.00
7317;DHT22;3699;51.462;6.696;2023-06-26T08:09:33;29.40;62.60
7317;DHT22;3699;51.462;6.696;2023-06-26T08:12:00;29.00;59.50
7317;DHT22;3699;51.462;6.696;2023-06-26T08:14:27;28.60;63.20
7317;DHT22;3699;51.462;6.696;2023-06-26T08:16:54;28.30;65.10
7317;DHT22;3699;51.462;6.696;2023-06-26T08:19:21;28.10;66.10
7317;DHT22;3699;51.462;6.696;2023-06-26T08:21:49;28.10;64.30
7317;DHT22;3699;51.462;6.696;2023-06-26T08:24:16;27.70;67.20
7317;DHT22;3699;51.462;6.696;2023-06-26T08:26:45;27.70;67.20
7317;DHT22;3699;51.462;6.696;2023-06-26T08:29:12;27.70;75.70
7317;DHT22;3699;51.462;6.696;2023-06-26T08:31:39;27.90;75.60
7317;DHT22;3699;51.462;6.696;2023-06-26T08:34:07;28.20;82.30
7317;DHT22;3699;51.462;6.696;2023-06-26T08:36:34;28.20;66.70
7317;DHT22;3699;51.462;6.696;2023-06-26T08:39:02;28.40;77.20
7317;DHT22;3699;51.462;6.696;2023-06-26T08:41:30;28.70;72.30
7317;DHT22;3699;51.462;6.696;2023-06-26T08:43:57;28.60;68.30
7317;DHT22;3699;51.462;6.696;2023-06-26T08:46:24;28.50;67.80
7317;DHT22;3699;51.462;6.696;2023-06-26T08:48:55;28.40;72.60
7317;DHT22;3699;51.462;6.696;2023-06-26T08:51:24;28.50;72.50
7317;DHT22;3699;51.462;6.696;2023-06-26T08:53:56;28.40;70.00
7317;DHT22;3699;51.462;6.696;2023-06-26T08:56:27;28.30;72.90
7317;DHT22;3699;51.462;6.696;2023-06-26T08:58:54;28.50;72.60
7317;DHT22;3699;51.462;6.696;2023-06-26T09:01:22;28.60;75.00
7317;DHT22;3699;51.462;6.696;2023-06-26T09:03:50;28.80;71.40
7317;DHT22;3699;51.462;6.696;2023-06-26T09:06:17;29.10;64.00
7317;DHT22;3699;51.462;6.696;2023-06-26T09:08:44;29.10;58.30
7317;DHT22;3699;51.462;6.696;2023-06-26T09:11:11;28.90;62.10
7317;DHT22;3699;51.462;6.696;2023-06-26T09:13:39;29.00;68.00
7317;DHT22;3699;51.462;6.696;2023-06-26T09:16:07;29.40;68.90
7317;DHT22;3699;51.462;6.696;2023-06-26T09:18:34;29.80;60.20
7317;DHT22;3699;51.462;6.696;2023-06-26T09:21:06;29.80;59.80
7317;DHT22;3699;51.462;6.696;2023-06-26T09:23:34;29.70;56.90
7317;DHT22;3699;51.462;6.696;2023-06-26T09:26:02;29.40;57.30
7317;DHT22;3699;51.462;6.696;2023-06-26T09:28:30;29.00;58.90
7317;DHT22;3699;51.462;6.696;2023-06-26T09:31:02;29.00;60.10
7317;DHT22;3699;51.462;6.696;2023-06-26T09:33:33;29.20;61.50
7317;DHT22;3699;51.462;6.696;2023-06-26T09:36:01;29.50;55.60
7317;DHT22;3699;51.462;6.696;2023-06-26T09:38:28;29.60;56.50
7317;DHT22;3699;51.462;6.696;2023-06-26T09:40:55;29.90;52.10
7317;DHT22;3699;51.462;6.696;2023-06-26T09:43:21;30.00;52.00
7317;DHT22;3699;51.462;6.696;2023-06-26T09:45:48;30.00;51.80
7317;DHT22;3699;51.462;6.696;2023-06-26T09:48:16;30.20;50.60
7317;DHT22;3699;51.462;6.696;2023-06-26T09:50:43;30.60;49.10
7317;DHT22;3699;51.462;6.696;2023-06-26T09:53:11;30.60;47.20
7317;DHT22;3699;51.462;6.696;2023-06-26T09:55:39;30.80;47.40
7317;DHT22;3699;51.462;6.696;2023-06-26T09:58:10;30.90;47.10
7317;DHT22;3699;51.462;6.696;2023-06-26T10:00:40;31.10;45.20
7317;DHT22;3699;51.462;6.696;2023-06-26T10:03:07;30.90;45.80
7317;DHT22;3699;51.462;6.696;2023-06-26T10:05:35;30.90;44.50
7317;DHT22;3699;51.462;6.696;2023-06-26T10:08:03;30.40;43.40
7317;DHT22;3699;51.462;6.696;2023-06-26T10:10:33;30.30;44.30
7317;DHT22;3699;51.462;6.696;2023-06-26T10:13:04;30.40;46.50
7317;DHT22;3699;51.462;6.696;2023-06-26T10:15:33;30.30;45.80
7317;DHT22;3699;51.462;6.696;2023-06-26T10:18:00;30.00;46.10
7317;DHT22;3699;51.462;6.696;2023-06-26T10:20:27;29.40;44.70
7317;DHT22;3699;51.462;6.696;2023-06-26T10:22:58;28.80;45.70
7317;DHT22;3699;51.462;6.696;2023-06-26T10:25:26;28.50;50.80
7317;DHT22;3699;51.462;6.696;2023-06-26T10:27:57;28.60;51.70
7317;DHT22;3699;51.462;6.696;2023-06-26T10:30:27;28.70;49.80
7317;DHT22;3699;51.462;6.696;2023-06-26T10:32:55;28.90;50.10
7317;DHT22;3699;51.462;6.696;2023-06-26T10:35:24;29.20;50.50
7317;DHT22;3699;51.462;6.696;2023-06-26T10:37:51;29.50;47.30
7317;DHT22;3699;51.462;6.696;2023-06-26T10:40:25;29.50;46.90
7317;DHT22;3699;51.462;6.696;2023-06-26T10:43:05;29.50;45.70
7317;DHT22;3699;51.462;6.696;2023-06-26T10:45:33;29.50;40.70
7317;DHT22;3699;51.462;6.696;2023-06-26T10:48:00;29.00;41.70
7317;DHT22;3699;51.462;6.696;2023-06-26T10:50:28;28.50;40.80
7317;DHT22;3699;51.462;6.696;2023-06-26T10:53:09;28.30;43.10
7317;DHT22;3699;51.462;6.696;2023-06-26T10:55:41;28.30;44.60
7317;DHT22;3699;51.462;6.696;2023-06-26T10:58:26;28.10;41.30
7317;DHT22;3699;51.462;6.696;2023-06-26T11:01:14;27.90;41.30
7317;DHT22;3699;51.462;6.696;2023-06-26T11:03:41;27.80;39.00
7317;DHT22;3699;51.462;6.696;2023-06-26T11:06:09;27.60;38.70
7317;DHT22;3699;51.462;6.696;2023-06-26T11:08:44;27.40;40.00
7317;DHT22;3699;51.462;6.696;2023-06-26T11:11:12;27.60;41.40
7317;DHT22;3699;51.462;6.696;2023-06-26T11:13:39;27.60;41.60
7317;DHT22;3699;51.462;6.696;2023-06-26T11:16:06;27.60;41.80
7317;DHT22;3699;51.462;6.696;2023-06-26T11:18:33;27.50;41.70
7317;DHT22;3699;51.462;6.696;2023-06-26T11:21:07;27.40;40.70
7317;DHT22;3699;51.462;6.696;2023-06-26T11:23:34;27.20;41.50
7317;DHT22;3699;51.462;6.696;2023-06-26T11:26:16;27.20;44.00
7317;DHT22;3699;51.462;6.696;2023-06-26T11:28:47;27.40;45.00
7317;DHT22;3699;51.462;6.696;2023-06-26T11:31:24;27.70;43.00
7317;DHT22;3699;51.462;6.696;2023-06-26T11:33:52;27.90;34.80
7317;DHT22;3699;51.462;6.696;2023-06-26T11:36:19;27.80;36.70
7317;DHT22;3699;51.462;6.696;2023-06-26T11:38:46;28.00;32.60
7317;DHT22;3699;51.462;6.696;2023-06-26T11:41:18;28.20;35.70
7317;DHT22;3699;51.462;6.696;2023-06-26T11:43:44;28.50;37.10
7317;DHT22;3699;51.462;6.696;2023-06-26T11:46:11;28.50;33.20
7317;DHT22;3699;51.462;6.696;2023-06-26T11:48:39;28.40;35.30
7317;DHT22;3699;51.462;6.696;2023-06-26T11:51:05;28.30;34.60
7317;DHT22;3699;51.462;6.696;2023-06-26T11:53:39;28.30;35.80
7317;DHT22;3699;51.462;6.696;2023-06-26T11:56:11;28.10;31.60
7317;DHT22;3699;51.462;6.696;2023-06-26T11:58:57;28.10;33.00
7317;DHT22;3699;51.462;6.696;2023-06-26T12:01:26;28.00;30.30
7317;DHT22;3699;51.462;6.696;2023-06-26T12:03:57;27.90;28.60
7317;DHT22;3699;51.462;6.696;2023-06-26T12:06:24;27.90;32.80
7317;DHT22;3699;51.462;6.696;2023-06-26T12:08:51;28.00;28.60
7317;DHT22;3699;51.462;6.696;2023-06-26T12:11:20;28.10;31.20
7317;DHT22;3699;51.462;6.696;2023-06-26T12:13:47;28.40;29.80
7317;DHT22;3699;51.462;6.696;2023-06-26T12:16:15;28.70;28.40
7317;DHT22;3699;51.462;6.696;2023-06-26T12:18:42;28.60;27.10
7317;DHT22;3699;51.462;6.696;2023-06-26T12:21:10;28.50;28.00
7317;DHT22;3699;51.462;6.696;2023-06-26T12:23:58;28.50;27.90
7317;DHT22;3699;51.462;6.696;2023-06-26T12:26:26;28.30;27.00
7317;DHT22;3699;51.462;6.696;2023-06-26T12:28:53;28.20;27.60
7317;DHT22;3699;51.462;6.696;2023-06-26T12:31:21;28.20;28.30
7317;DHT22;3699;51.462;6.696;2023-06-26T12:33:49;28.50;28.80
7317;DHT22;3699;51.462;6.696;2023-06-26T12:36:17;28.80;31.40
7317;DHT22;3699;51.462;6.696;2023-06-26T12:38:45;29.00;29.10
7317;DHT22;3699;51.462;6.696;2023-06-26T12:41:12;29.10;27.60
7317;DHT22;3699;51.462;6.696;2023-06-26T12:43:40;29.20;27.00
7317;DHT22;3699;51.462;6.696;2023-06-26T12:46:07;29.20;25.50
7317;DHT22;3699;51.462;6.696;2023-06-26T12:48:39;29.10;27.50
7317;DHT22;3699;51.462;6.696;2023-06-26T12:51:10;28.90;24.60
7317;DHT22;3699;51.462;6.696;2023-06-26T12:53:37;28.60;26.20
7317;DHT22;3699;51.462;6.696;2023-06-26T12:56:05;28.60;25.90
7317;DHT22;3699;51.462;6.696;2023-06-26T12:58:31;28.50;25.70
7317;DHT22;3699;51.462;6.696;2023-06-26T13:00:58;28.40;25.50
7317;DHT22;3699;51.462;6.696;2023-06-26T13:03:25;28.30;27.40
7317;DHT22;3699;51.462;6.696;2023-06-26T13:05:53;28.40;28.80
7317;DHT22;3699;51.462;6.696;2023-06-26T13:08:20;28.50;26.60
7317;DHT22;3699;51.462;6.696;2023-06-26T13:10:46;28.50;26.20
7317;DHT22;3699;51.462;6.696;2023-06-26T13:13:13;28.30;27.90
7317;DHT22;3699;51.462;6.696;2023-06-26T13:15:40;28.10;27.20
7317;DHT22;3699;51.462;6.696;2023-06-26T13:18:06;28.10;28.50
7317;DHT22;3699;51.462;6.696;2023-06-26T13:20:33;28.10;26.80
7317;DHT22;3699;51.462;6.696;2023-06-26T13:23:01;28.00;25.70
7317;DHT22;3699;51.462;6.696;2023-06-26T13:25:29;27.90;27.20
7317;DHT22;3699;51.462;6.696;2023-06-26T13:27:56;27.80;26.20
7317;DHT22;3699;51.462;6.696;2023-06-26T13:30:23;27.60;26.90
7317;DHT22;3699;51.462;6.696;2023-06-26T13:32:50;27.70;26.40
7317;DHT22;3699;51.462;6.696;2023-06-26T13:35:16;27.80;25.70
7317;DHT22;3699;51.462;6.696;2023-06-26T13:37:43;28.00;26.60
7317;DHT22;3699;51.462;6.696;2023-06-26T13:40:12;28.20;23.90
7317;DHT22;3699;51.462;6.696;2023-06-26T13:42:39;28.40;26.00
7317;DHT22;3699;51.462;6.696;2023-06-26T13:45:07;28.80;25.00
7317;DHT22;3699;51.462;6.696;2023-06-26T13:47:34;28.80;22.90
7317;DHT22;3699;51.462;6.696;2023-06-26T13:50:03;28.80;23.20
7317;DHT22;3699;51.462;6.696;2023-06-26T13:52:31;28.80;22.70
7317;DHT22;3699;51.462;6.696;2023-06-26T13:54:58;29.00;25.10
7317;DHT22;3699;51.462;6.696;2023-06-26T13:57:26;29.30;26.80
7317;DHT22;3699;51.462;6.696;2023-06-26T13:59:54;29.40;22.70
7317;DHT22;3699;51.462;6.696;2023-06-26T14:02:20;29.40;23.80
7317;DHT22;3699;51.462;6.696;2023-06-26T14:04:47;29.50;24.10
7317;DHT22;3699;51.462;6.696;2023-06-26T14:07:14;29.50;24.00
7317;DHT22;3699;51.462;6.696;2023-06-26T14:09:41;29.30;22.50
7317;DHT22;3699;51.462;6.696;2023-06-26T14:12:08;29.30;24.30
7317;DHT22;3699;51.462;6.696;2023-06-26T14:14:43;29.30;22.30
7317;DHT22;3699;51.462;6.696;2023-06-26T14:17:10;29.40;23.20
7317;DHT22;3699;51.462;6.696;2023-06-26T14:19:41;29.30;23.30
7317;DHT22;3699;51.462;6.696;2023-06-26T14:22:08;29.30;21.80
7317;DHT22;3699;51.462;6.696;2023-06-26T14:24:35;29.20;20.60
7317;DHT22;3699;51.462;6.696;2023-06-26T14:27:02;29.00;22.90
7317;DHT22;3699;51.462;6.696;2023-06-26T14:29:29;28.80;22.10
7317;DHT22;3699;51.462;6.696;2023-06-26T14:31:57;28.50;22.30
7317;DHT22;3699;51.462;6.696;2023-06-26T14:34:24;28.40;22.00
7317;DHT22;3699;51.462;6.696;2023-06-26T14:36:51;28.30;24.60
7317;DHT22;3699;51.462;6.696;2023-06-26T14:39:28;28.30;25.00
7317;DHT22;3699;51.462;6.696;2023-06-26T14:41:55;28.20;21.50
7317;DHT22;3699;51.462;6.696;2023-06-26T14:44:22;28.00;20.70
7317;DHT22;3699;51.462;6.696;2023-06-26T14:46:49;27.80;22.30
7317;DHT22;3699;51.462;6.696;2023-06-26T14:49:17;27.60;21.10
7317;DHT22;3699;51.462;6.696;2023-06-26T14:51:45;27.30;23.50
7317;DHT22;3699;51.462;6.696;2023-06-26T14:54:12;27.30;24.00
7317;DHT22;3699;51.462;6.696;2023-06-26T14:56:39;27.10;24.90
7317;DHT22;3699;51.462;6.696;2023-06-26T14:59:05;27.00;27.10
7317;DHT22;3699;51.462;6.696;2023-06-26T15:01:33;26.90;28.10
7317;DHT22;3699;51.462;6.696;2023-06-26T15:04:00;26.80;28.80
7317;DHT22;3699;51.462;6.696;2023-06-26T15:06:28;27.00;28.40
7317;DHT22;3699;51.462;6.696;2023-06-26T15:08:54;27.10;27.50
7317;DHT22;3699;51.462;6.696;2023-06-26T15:11:21;27.10;26.80
7317;DHT22;3699;51.462;6.696;2023-06-26T15:13:48;27.30;29.00
7317;DHT22;3699;51.462;6.696;2023-06-26T15:16:14;27.30;26.70
7317;DHT22;3699;51.462;6.696;2023-06-26T15:18:41;27.20;25.40
7317;DHT22;3699;51.462;6.696;2023-06-26T15:21:08;27.10;25.40
7317;DHT22;3699;51.462;6.696;2023-06-26T15:23:36;26.90;25.70
7317;DHT22;3699;51.462;6.696;2023-06-26T15:26:04;26.90;26.60
7317;DHT22;3699;51.462;6.696;2023-06-26T15:28:31;26.90;27.20
7317;DHT22;3699;51.462;6.696;2023-06-26T15:30:58;26.80;26.00
7317;DHT22;3699;51.462;6.696;2023-06-26T15:33:25;26.70;25.70
7317;DHT22;3699;51.462;6.696;2023-06-26T15:35:52;26.60;26.90
7317;DHT22;3699;51.462;6.696;2023-06-26T15:38:19;26.50;26.90
7317;DHT22;3699;51.462;6.696;2023-06-26T15:40:47;26.40;27.20
7317;DHT22;3699;51.462;6.696;2023-06-26T15:43:14;26.30;28.40
7317;DHT22;3699;51.462;6.696;2023-06-26T15:45:41;26.20;28.60
7317;DHT22;3699;51.462;6.696;2023-06-26T15:48:07;26.20;28.70
7317;DHT22;3699;51.462;6.696;2023-06-26T15:50:34;26.20;28.00
7317;DHT22;3699;51.462;6.696;2023-06-26T15:53:02;26.10;27.80
7317;DHT22;3699;51.462;6.696;2023-06-26T15:55:29;26.00;28.00
7317;DHT22;3699;51.462;6.696;2023-06-26T15:57:57;25.90;28.60
7317;DHT22;3699;51.462;6.696;2023-06-26T16:00:25;25.80;29.60
7317;DHT22;3699;51.462;6.696;2023-06-26T16:02:52;25.80;28.60
7317;DHT22;3699;51.462;6.696;2023-06-26T16:05:18;25.60;28.60
7317;DHT22;3699;51.462;6.696;2023-06-26T16:07:45;25.60;28.70
7317;DHT22;3699;51.462;6.696;2023-06-26T16:10:12;25.60;29.20
7317;DHT22;3699;51.462;6.696;2023-06-26T16:12:39;25.60;30.00
7317;DHT22;3699;51.462;6.696;2023-06-26T16:15:07;25.60;29.70
7317;DHT22;3699;51.462;6.696;2023-06-26T16:17:49;25.50;30.00